< < Back
Terminal Aerodrome Forecast


Current Version              Previous Versions:   1  2  3  4  5  6  7  8  9  

Terminal Aerodrome Forecast

312
FTUS44 KOHX 161900 AAA
TAFBNA
TAF AMD
KBNA 161904Z 1619/1718 36008KT P6SM OVC017
     FM162000 36008KT P6SM OVC025
     FM170300 36003KT P6SM SCT250
     FM171000 36002KT 3SM BR SCT005
     FM171400 36004KT P6SM SCT250=

Latest METAR

360
SAUS70 KWBC 161900 RRM
MTRBNA
METAR KBNA 161853Z 36008KT 10SM OVC017 22/17 A3011 RMK AO2 SLP193
T02170167


USA.gov is the U.S. government's official web portal to all federal, state and local government web resources and services.